createdAt,value
2023-04-15T00:00:37.887Z,97348.42
2023-04-15T00:07:03.044Z,97351.52
2023-04-15T00:12:43.329Z,97355.05
2023-04-15T00:18:32.418Z,97358.52
2023-04-15T00:24:24.892Z,97357.63
2023-04-15T00:29:44.109Z,97369.38
2023-04-15T00:34:52.175Z,97377.20
2023-04-15T00:40:28.327Z,97379.07
2023-04-15T00:46:06.069Z,97382.98
2023-04-15T00:52:28.535Z,97389.92
2023-04-15T00:58:18.354Z,97400.86
2023-04-15T01:03:58.321Z,97399.08
2023-04-15T01:10:39.238Z,97407.23
2023-04-15T01:16:15.103Z,97414.08
2023-04-15T01:21:34.925Z,97415.90
2023-04-15T01:27:23.226Z,97410.27
2023-04-15T01:33:37.163Z,97415.81
2023-04-15T01:39:58.018Z,97418.21
2023-04-15T01:45:26.422Z,97418.59
2023-04-15T01:50:57.270Z,97415.37
2023-04-15T01:56:22.259Z,97418.02
2023-04-15T02:01:45.022Z,97426.45
2023-04-15T02:07:45.274Z,97428.86
2023-04-15T02:12:53.608Z,97433.77
2023-04-15T02:18:24.256Z,97438.27
2023-04-15T02:23:43.465Z,97452.94
2023-04-15T02:29:33.796Z,97459.50
2023-04-15T02:35:09.159Z,97468.30
2023-04-15T02:40:59.097Z,97471.09
2023-04-15T02:46:33.976Z,97471.02
2023-04-15T02:51:57.620Z,97474.72
2023-04-15T02:57:50.240Z,97482.17
2023-04-15T03:04:13.671Z,97475.15
2023-04-15T03:10:54.919Z,97487.86
2023-04-15T03:17:42.992Z,97492.77
2023-04-15T03:24:12.806Z,97500.33
2023-04-15T03:30:31.195Z,97510.17
2023-04-15T03:37:01.828Z,97515.11
2023-04-15T03:44:05.640Z,97512.86
2023-04-15T03:49:46.234Z,97524.77
2023-04-15T03:55:04.306Z,97525.66
2023-04-15T04:00:34.325Z,97526.66
2023-04-15T04:06:32.193Z,97529.41
2023-04-15T04:11:50.161Z,97537.82
2023-04-15T04:18:13.444Z,97535.91
2023-04-15T04:23:40.847Z,97537.14
2023-04-15T04:29:46.446Z,97541.73
2023-04-15T04:35:50.808Z,97547.05
2023-04-15T04:43:02.428Z,97558.01
2023-04-15T04:48:30.968Z,97557.58
2023-04-15T04:54:40.082Z,97573.50
2023-04-15T05:00:45.476Z,97584.23
2023-04-15T05:05:55.871Z,97577.68
2023-04-15T05:11:23.048Z,97572.70
2023-04-15T05:17:10.303Z,97577.13
2023-04-15T05:23:27.263Z,97586.47
2023-04-15T05:29:04.465Z,97582.06
2023-04-15T05:35:06.532Z,97583.43
2023-04-15T05:41:45.184Z,97577.89
2023-04-15T05:48:04.706Z,97586.55
2023-04-15T05:53:31.480Z,97593.97
2023-04-15T05:59:51.661Z,97590.74
2023-04-15T06:05:25.567Z,97601.10
2023-04-15T06:10:35.972Z,97609.07
2023-04-15T06:16:22.628Z,97616.48
2023-04-15T06:21:36.026Z,97621.16
2023-04-15T06:26:52.930Z,97621.69
2023-04-15T06:32:02.604Z,97621.66
2023-04-15T06:37:15.194Z,97633.70
2023-04-15T06:42:21.572Z,97628.23
2023-04-15T06:47:51.656Z,97630.45
2023-04-15T06:53:07.299Z,97625.59
2023-04-15T06:58:41.248Z,97626.06
2023-04-15T07:04:14.535Z,97631.06
2023-04-15T07:09:17.843Z,97625.70
2023-04-15T07:14:26.856Z,97630.77
2023-04-15T07:19:43.065Z,97641.58
2023-04-15T07:25:00.923Z,97639.68
2023-04-15T07:30:12.088Z,97636.90
2023-04-15T07:35:16.256Z,97643.61
2023-04-15T07:40:51.254Z,97645.77
2023-04-15T07:45:58.731Z,97636.84
2023-04-15T07:51:08.246Z,97641.91
2023-04-15T07:56:17.985Z,97644.04
2023-04-15T08:02:14.990Z,97646.14
2023-04-15T08:07:37.137Z,97643.85
2023-04-15T08:13:17.230Z,97641.06
2023-04-15T08:18:31.448Z,97647.41
2023-04-15T08:23:47.059Z,97644.48
2023-04-15T08:28:52.451Z,97648.33
2023-04-15T08:33:57.085Z,97655.02
2023-04-15T08:39:13.466Z,97646.17
2023-04-15T08:44:18.122Z,97646.04
2023-04-15T08:49:26.044Z,97641.86
2023-04-15T08:54:30.593Z,97643.04
2023-04-15T08:59:44.252Z,97647.44
2023-04-15T09:05:16.929Z,97653.16
2023-04-15T09:10:22.000Z,97655.08
2023-04-15T09:15:36.219Z,97656.99
2023-04-15T09:21:28.996Z,97654.06
2023-04-15T09:26:43.829Z,97651.66
2023-04-15T09:31:53.568Z,97647.93
2023-04-15T09:36:56.568Z,97637.39
2023-04-15T09:42:13.513Z,97637.59
2023-04-15T09:47:40.720Z,97641.20
2023-04-15T09:52:47.131Z,97644.10
2023-04-15T09:58:51.788Z,97646.52
2023-04-15T10:05:24.055Z,97655.30
2023-04-15T10:11:45.165Z,97650.27
2023-04-15T10:17:12.674Z,97650.66
2023-04-15T10:22:18.294Z,97651.20
2023-04-15T10:27:39.011Z,97650.02
2023-04-15T10:32:45.598Z,97642.32
2023-04-15T10:37:50.207Z,97642.17
2023-04-15T10:42:58.395Z,97641.44
2023-04-15T10:48:12.441Z,97641.50
2023-04-15T10:53:28.366Z,97642.69
2023-04-15T10:58:41.746Z,97644.91
2023-04-15T11:03:43.908Z,97639.24
2023-04-15T11:08:59.478Z,97647.17
2023-04-15T11:14:05.232Z,97653.44
2023-04-15T11:19:09.890Z,97660.95
2023-04-15T11:24:26.881Z,97668.66
2023-04-15T11:29:37.541Z,97665.79
2023-04-15T11:34:48.444Z,97672.77
2023-04-15T11:39:50.736Z,97675.33
2023-04-15T11:45:16.190Z,97675.69
2023-04-15T11:50:23.197Z,97678.30
2023-04-15T11:55:28.902Z,97678.90
2023-04-15T12:00:31.219Z,97681.98
2023-04-15T12:05:36.022Z,97679.78
2023-04-15T12:10:37.953Z,97683.81
2023-04-15T12:15:44.747Z,97686.33
2023-04-15T12:20:49.490Z,97682.80
2023-04-15T12:25:54.017Z,97682.65
2023-04-15T12:31:13.299Z,97680.40
2023-04-15T12:36:23.448Z,97679.63
2023-04-15T12:41:29.956Z,97678.13
2023-04-15T12:46:57.207Z,97680.81
2023-04-15T12:52:34.584Z,97674.70
2023-04-15T12:58:02.129Z,97677.60
2023-04-15T13:03:06.728Z,97671.70
2023-04-15T13:08:18.686Z,97670.63
2023-04-15T13:13:40.604Z,97672.74
2023-04-15T13:19:09.310Z,97667.14
2023-04-15T13:24:19.728Z,97675.95
2023-04-15T13:29:27.109Z,97676.85
2023-04-15T13:34:41.546Z,97674.80
2023-04-15T13:39:46.390Z,97681.45
2023-04-15T13:45:13.351Z,97686.83
2023-04-15T13:50:21.250Z,97688.75
2023-04-15T13:55:38.244Z,97689.48
2023-04-15T14:00:40.699Z,97689.92
2023-04-15T14:05:47.618Z,97692.71
2023-04-15T14:10:49.956Z,97701.94
2023-04-15T14:16:00.463Z,97705.66
2023-04-15T14:21:10.844Z,97713.17
2023-04-15T14:26:15.028Z,97722.77
2023-04-15T14:31:21.533Z,97724.50
2023-04-15T14:36:33.683Z,97731.48
2023-04-15T14:41:38.088Z,97733.92
2023-04-15T14:46:58.381Z,97738.90
2023-04-15T14:53:00.640Z,97737.20
2023-04-15T14:58:16.013Z,97739.61
2023-04-15T15:03:18.499Z,97745.86
2023-04-15T15:08:23.794Z,97755.36
2023-04-15T15:13:38.687Z,97759.65
2023-04-15T15:18:43.538Z,97760.21
2023-04-15T15:23:59.935Z,97757.28
2023-04-15T15:29:04.853Z,97761.64
2023-04-15T15:34:12.580Z,97770.45
2023-04-15T15:39:40.726Z,97776.34
2023-04-15T15:44:45.427Z,97780.73
2023-04-15T15:49:49.877Z,97781.21
2023-04-15T15:55:08.268Z,97797.55
2023-04-15T16:00:16.697Z,97818.88
2023-04-15T16:05:19.473Z,97833.77
2023-04-15T16:11:21.021Z,97852.67
2023-04-15T16:17:48.962Z,97873.88
2023-04-15T16:24:39.668Z,97867.75
2023-04-15T16:31:53.468Z,97856.56
2023-04-15T16:38:00.881Z,97852.03
2023-04-15T16:43:32.274Z,97854.73
2023-04-15T16:48:44.685Z,97850.22
2023-04-15T16:54:41.971Z,97855.11
2023-04-15T17:00:22.162Z,97866.92
2023-04-15T17:06:11.196Z,97890.77
2023-04-15T17:12:49.244Z,97899.20
2023-04-15T17:19:03.593Z,97903.36
2023-04-15T17:25:33.787Z,97938.92
2023-04-15T17:32:29.402Z,97948.16
2023-04-15T17:39:08.485Z,97950.04
2023-04-15T17:45:26.872Z,97958.95
2023-04-15T17:51:53.462Z,97964.80
2023-04-15T17:58:14.052Z,97975.10
2023-04-15T18:05:04.578Z,98015.30
2023-04-15T18:12:08.417Z,98033.16
2023-04-15T18:18:29.866Z,98042.21
2023-04-15T18:25:03.328Z,98045.15
2023-04-15T18:31:10.520Z,98042.66
2023-04-15T18:37:11.558Z,98051.52
2023-04-15T18:43:56.359Z,98053.03
2023-04-15T18:50:59.169Z,98052.27
2023-04-15T18:57:34.896Z,98056.20
2023-04-15T19:03:58.015Z,98055.84
2023-04-15T19:10:13.651Z,98071.21
2023-04-15T19:16:42.115Z,98079.04
2023-04-15T19:22:38.655Z,98086.81
2023-04-15T19:27:59.968Z,98100.59
2023-04-15T19:34:08.425Z,98106.36
2023-04-15T19:40:18.227Z,98120.89
2023-04-15T19:46:41.744Z,98115.80
2023-04-15T19:52:36.400Z,98096.23
2023-04-15T19:58:38.101Z,98098.42
2023-04-15T20:04:46.494Z,98102.88
2023-04-15T20:12:05.105Z,98104.61
2023-04-15T20:18:21.000Z,98111.44
2023-04-15T20:24:41.154Z,98107.52
2023-04-15T20:30:46.562Z,98109.98
2023-04-15T20:37:49.187Z,98116.53
2023-04-15T20:44:48.882Z,98118.40
2023-04-15T20:51:43.791Z,98122.23
2023-04-15T20:58:46.600Z,98128.55
2023-04-15T21:05:32.657Z,98137.19
2023-04-15T21:12:15.474Z,98145.36
2023-04-15T21:19:18.277Z,98151.67
2023-04-15T21:26:22.315Z,98155.14
2023-04-15T21:33:25.138Z,98167.38
2023-04-15T21:40:28.237Z,98184.64
2023-04-15T21:47:30.786Z,98186.09
2023-04-15T21:54:33.763Z,98188.48
2023-04-15T22:01:31.598Z,98193.50
2023-04-15T22:08:44.513Z,98203.15
2023-04-15T22:16:01.912Z,98209.95
2023-04-15T22:23:10.656Z,98223.29
2023-04-15T22:30:16.110Z,98223.17
2023-04-15T22:37:19.147Z,98230.54
2023-04-15T22:44:25.912Z,98236.05
2023-04-15T22:51:18.698Z,98243.79
2023-04-15T22:58:07.883Z,98250.61
2023-04-15T23:05:12.918Z,98264.01
2023-04-15T23:12:21.640Z,98265.80
2023-04-15T23:19:24.501Z,98271.59
2023-04-15T23:26:10.310Z,98275.77
2023-04-15T23:33:04.183Z,98278.97
2023-04-15T23:40:07.962Z,98286.09
2023-04-15T23:47:17.817Z,98289.25
2023-04-15T23:54:20.769Z,98297.96
